Time;durP1;ratioP1;P1;durP2;ratioP2;P2;SDS_P1;SDS_P2;PMS_P1;PMS_P2;Temp;Humidity;BMP_temperature;BMP_pressure;BME280_temperature;BME280_humidity;BME280_pressure;Samples;Min_cycle;Max_cycle;Signal;HPM_P1;HPM_P2
2022/10/07 00:00:09;;;;;;;7.53;2.17;;;;;;;;;;4969521;28;20460;-57
2022/10/07 00:02:35;;;;;;;5.50;2.30;;;;;;;;;;4971407;28;20449;-56
2022/10/07 00:05:01;;;;;;;4.13;2.30;;;;;;;;;;4984109;28;21244;-56
2022/10/07 00:07:27;;;;;;;3.00;1.87;;;;;;;;;;4984614;28;20447;-57
2022/10/07 00:09:56;;;;;;;3.77;2.43;;;;;;;;;;4964853;28;20599;-57
2022/10/07 00:12:23;;;;;;;15.60;2.70;;;;;;;;;;4963000;28;20523;-57
2022/10/07 00:14:49;;;;;;;2.80;2.20;;;;;;;;;;4968216;28;20434;-57
2022/10/07 00:17:15;;;;;;;3.67;2.20;;;;;;;;;;4968428;28;20635;-57
2022/10/07 00:19:42;;;;;;;3.67;2.17;;;;;;;;;;4982004;28;20476;-57
2022/10/07 00:22:08;;;;;;;5.40;2.63;;;;;;;;;;4977766;28;20434;-62
2022/10/07 00:24:34;;;;;;;2.53;2.13;;;;;;;;;;5013102;28;20446;-58
2022/10/07 00:27:00;;;;;;;7.50;2.10;;;;;;;;;;4963816;28;20876;-57
2022/10/07 00:29:26;;;;;;;3.50;2.17;;;;;;;;;;4983740;28;20469;-58
2022/10/07 00:31:53;;;;;;;5.40;3.10;;;;;;;;;;4949772;28;20507;-58
2022/10/07 00:34:19;;;;;;;4.00;2.50;;;;;;;;;;4979843;28;20433;-57
2022/10/07 00:36:44;;;;;;;6.83;2.20;;;;;;;;;;4958778;28;20840;-57
2022/10/07 00:39:11;;;;;;;3.60;2.30;;;;;;;;;;4987732;28;20441;-57
2022/10/07 00:41:38;;;;;;;4.20;2.40;;;;;;;;;;4951572;28;20437;-58
2022/10/07 00:44:22;;;;;;;4.30;2.70;;;;;;;;;;4978388;28;20528;-58
2022/10/07 00:46:48;;;;;;;5.23;2.60;;;;;;;;;;4955762;28;20452;-56
2022/10/07 00:49:14;;;;;;;5.77;2.40;;;;;;;;;;4980069;28;20992;-59
2022/10/07 00:51:40;;;;;;;4.50;2.30;;;;;;;;;;4978291;28;20883;-58
2022/10/07 00:54:07;;;;;;;3.00;1.93;;;;;;;;;;5013104;28;20440;-59
2022/10/07 00:56:33;;;;;;;8.97;2.90;;;;;;;;;;4972090;28;20504;-59
2022/10/07 00:58:59;;;;;;;3.20;1.90;;;;;;;;;;4982779;28;20501;-56
2022/10/07 01:01:25;;;;;;;2.60;2.07;;;;;;;;;;5008593;28;20529;-58
2022/10/07 01:03:51;;;;;;;4.90;2.27;;;;;;;;;;4982580;28;21081;-58
2022/10/07 01:06:17;;;;;;;4.70;2.30;;;;;;;;;;4935874;28;20449;-57
2022/10/07 01:08:44;;;;;;;9.40;2.93;;;;;;;;;;4963745;28;20982;-58
2022/10/07 01:11:21;;;;;;;6.13;2.50;;;;;;;;;;4965736;28;20492;-57
2022/10/07 01:14:03;;;;;;;4.90;2.57;;;;;;;;;;4968585;28;20448;-55
2022/10/07 01:16:29;;;;;;;5.87;2.50;;;;;;;;;;4952257;28;21014;-57
2022/10/07 01:19:03;;;;;;;12.63;2.20;;;;;;;;;;4977028;28;20429;-56
2022/10/07 01:21:47;;;;;;;10.33;2.60;;;;;;;;;;4978134;28;20453;-56
2022/10/07 01:24:17;;;;;;;2.83;2.00;;;;;;;;;;4979650;28;20449;-57
2022/10/07 01:26:47;;;;;;;2.63;1.90;;;;;;;;;;4992148;28;20445;-57
2022/10/07 01:29:14;;;;;;;5.97;2.07;;;;;;;;;;4982875;28;20448;-57
2022/10/07 01:31:42;;;;;;;6.90;2.40;;;;;;;;;;4958948;28;20492;-57
2022/10/07 01:34:08;;;;;;;4.60;2.27;;;;;;;;;;4978726;28;20964;-56
2022/10/07 01:36:35;;;;;;;3.43;2.37;;;;;;;;;;4982941;28;20458;-54
2022/10/07 01:39:02;;;;;;;4.93;2.00;;;;;;;;;;4986298;28;20446;-57
2022/10/07 01:41:28;;;;;;;6.60;2.40;;;;;;;;;;4974941;28;20455;-55
2022/10/07 01:43:54;;;;;;;3.47;2.20;;;;;;;;;;5013035;28;20773;-57
2022/10/07 01:46:24;;;;;;;4.40;2.20;;;;;;;;;;4941892;28;20925;-57
2022/10/07 01:48:50;;;;;;;3.43;2.43;;;;;;;;;;4985223;28;20460;-57
2022/10/07 01:51:16;;;;;;;2.80;2.00;;;;;;;;;;4956408;28;20473;-58
2022/10/07 01:53:48;;;;;;;3.67;2.77;;;;;;;;;;4986280;28;20500;-59
2022/10/07 01:56:20;;;;;;;5.20;2.50;;;;;;;;;;4979055;28;20473;-58
2022/10/07 01:59:05;;;;;;;5.17;2.30;;;;;;;;;;4986404;28;20434;-60
2022/10/07 02:01:49;;;;;;;4.60;2.40;;;;;;;;;;4973546;28;20453;-56
2022/10/07 02:04:34;;;;;;;8.00;2.60;;;;;;;;;;4979070;28;21531;-57
2022/10/07 02:07:04;;;;;;;3.93;2.50;;;;;;;;;;4951853;28;20446;-57
2022/10/07 02:09:35;;;;;;;4.37;2.40;;;;;;;;;;5015916;28;20516;-57
2022/10/07 02:12:07;;;;;;;5.53;3.00;;;;;;;;;;4958696;28;20459;-58
2022/10/07 02:14:37;;;;;;;5.67;2.60;;;;;;;;;;4982215;28;20437;-57
2022/10/07 02:17:04;;;;;;;7.63;2.67;;;;;;;;;;4943050;28;20476;-58
2022/10/07 02:19:34;;;;;;;3.40;2.57;;;;;;;;;;4984657;28;20432;-58
2022/10/07 02:22:01;;;;;;;4.33;2.60;;;;;;;;;;4955119;28;20452;-58
2022/10/07 02:24:28;;;;;;;8.13;2.67;;;;;;;;;;5006130;28;20440;-58
2022/10/07 02:26:54;;;;;;;5.83;2.47;;;;;;;;;;4993592;28;20442;-57
2022/10/07 02:29:21;;;;;;;7.77;3.43;;;;;;;;;;4978954;28;20503;-58
2022/10/07 02:31:47;;;;;;;3.80;2.37;;;;;;;;;;4984710;28;20453;-59
2022/10/07 02:34:14;;;;;;;4.67;2.20;;;;;;;;;;4976536;28;20429;-57
2022/10/07 02:36:45;;;;;;;8.13;2.93;;;;;;;;;;4947322;28;20449;-56
2022/10/07 02:39:11;;;;;;;5.00;2.90;;;;;;;;;;4979450;28;20541;-59
2022/10/07 02:41:40;;;;;;;6.93;2.53;;;;;;;;;;4976555;28;20590;-56
2022/10/07 02:44:09;;;;;;;5.13;2.30;;;;;;;;;;4982713;28;20481;-57
2022/10/07 02:46:42;;;;;;;2.80;2.30;;;;;;;;;;4968136;28;20866;-57
2022/10/07 02:49:09;;;;;;;4.77;2.63;;;;;;;;;;5016360;28;20452;-58
2022/10/07 02:51:36;;;;;;;3.37;2.83;;;;;;;;;;4952327;28;20457;-57
2022/10/07 02:54:03;;;;;;;3.97;2.53;;;;;;;;;;4983928;28;20441;-57
2022/10/07 02:56:29;;;;;;;3.10;2.20;;;;;;;;;;4961057;28;20460;-56
2022/10/07 02:58:55;;;;;;;4.20;3.00;;;;;;;;;;4983690;28;20444;-58
2022/10/07 03:01:23;;;;;;;4.73;2.87;;;;;;;;;;4958644;28;20448;-58
2022/10/07 03:03:49;;;;;;;7.03;2.73;;;;;;;;;;4972441;28;20450;-57
2022/10/07 03:06:18;;;;;;;5.67;2.40;;;;;;;;;;4958914;28;21443;-58
2022/10/07 03:08:44;;;;;;;7.30;2.80;;;;;;;;;;4968473;28;20440;-57
2022/10/07 03:11:10;;;;;;;3.40;2.53;;;;;;;;;;4974275;28;20514;-57
2022/10/07 03:13:35;;;;;;;5.77;3.07;;;;;;;;;;4978793;28;20433;-57
2022/10/07 03:16:04;;;;;;;4.80;2.60;;;;;;;;;;4967567;28;20539;-57
2022/10/07 03:18:29;;;;;;;4.60;2.40;;;;;;;;;;4958314;28;21100;-57
2022/10/07 03:20:56;;;;;;;3.03;2.67;;;;;;;;;;4978443;28;20473;-58
2022/10/07 03:23:25;;;;;;;5.43;3.20;;;;;;;;;;4979120;28;20484;-58
2022/10/07 03:25:52;;;;;;;8.63;3.40;;;;;;;;;;4979299;28;20988;-59
2022/10/07 03:28:21;;;;;;;3.87;2.53;;;;;;;;;;4957681;28;20496;-58
2022/10/07 03:30:48;;;;;;;5.43;2.93;;;;;;;;;;4977088;28;20552;-56
2022/10/07 03:33:14;;;;;;;5.77;3.37;;;;;;;;;;4962232;28;20436;-56
2022/10/07 03:35:40;;;;;;;2.93;2.40;;;;;;;;;;4977150;28;20969;-57
2022/10/07 03:38:07;;;;;;;5.77;2.60;;;;;;;;;;4958381;28;20436;-58
2022/10/07 03:40:39;;;;;;;3.03;2.40;;;;;;;;;;4979272;28;20457;-59
2022/10/07 03:43:06;;;;;;;4.67;2.30;;;;;;;;;;4980582;28;20796;-57
2022/10/07 03:45:34;;;;;;;3.90;2.13;;;;;;;;;;4978151;28;20449;-57
2022/10/07 03:47:59;;;;;;;5.43;2.80;;;;;;;;;;4943392;28;20484;-58
2022/10/07 03:50:25;;;;;;;3.33;1.97;;;;;;;;;;4984095;28;20477;-58
2022/10/07 03:52:51;;;;;;;3.47;2.20;;;;;;;;;;4975159;28;20437;-58
2022/10/07 03:55:18;;;;;;;4.70;2.20;;;;;;;;;;5011967;28;20536;-58
2022/10/07 03:57:50;;;;;;;2.97;2.50;;;;;;;;;;4955554;28;20469;-57
2022/10/07 04:00:16;;;;;;;5.13;2.23;;;;;;;;;;4984805;28;20449;-55
2022/10/07 04:02:42;;;;;;;4.30;2.80;;;;;;;;;;4957531;28;20434;-56
2022/10/07 04:05:09;;;;;;;3.87;2.83;;;;;;;;;;4977807;28;20498;-57
2022/10/07 04:07:35;;;;;;;4.03;2.57;;;;;;;;;;4953256;28;20449;-57
2022/10/07 04:10:01;;;;;;;3.40;3.10;;;;;;;;;;4977106;28;21090;-57
2022/10/07 04:12:31;;;;;;;5.00;3.17;;;;;;;;;;4983930;28;20445;-57
2022/10/07 04:14:57;;;;;;;3.13;2.80;;;;;;;;;;4964239;28;20441;-57
2022/10/07 04:17:23;;;;;;;7.80;2.90;;;;;;;;;;4954265;28;20452;-56
2022/10/07 04:19:51;;;;;;;5.77;2.57;;;;;;;;;;4965397;28;20475;-57
2022/10/07 04:22:18;;;;;;;5.50;2.77;;;;;;;;;;4973993;28;20939;-56
2022/10/07 04:25:32;;;;;;;5.23;3.63;;;;;;;;;;4974965;28;20510;-55
2022/10/07 04:27:30;;;;;;;5.00;3.10;;;;;;;;;;4978326;28;20197;-55
2022/10/07 04:29:56;;;;;;;7.03;3.07;;;;;;;;;;4954847;28;20497;-57
2022/10/07 04:32:22;;;;;;;4.73;2.80;;;;;;;;;;4955788;28;20469;-55
2022/10/07 04:34:50;;;;;;;5.83;2.90;;;;;;;;;;4976425;28;20426;-56
2022/10/07 04:37:16;;;;;;;4.80;2.57;;;;;;;;;;4972910;28;20530;-57
2022/10/07 04:39:42;;;;;;;7.10;3.40;;;;;;;;;;4984649;28;20440;-58
2022/10/07 04:43:17;;;;;;;4.70;2.53;;;;;;;;;;4950661;28;20472;-58
2022/10/07 04:44:54;;;;;;;8.23;3.03;;;;;;;;;;4977596;28;20441;-58
2022/10/07 04:47:20;;;;;;;7.97;2.90;;;;;;;;;;4954717;28;20459;-59
2022/10/07 04:49:46;;;;;;;6.00;2.83;;;;;;;;;;4973521;28;20528;-63
2022/10/07 04:52:12;;;;;;;7.33;4.20;;;;;;;;;;4943338;28;20449;-58
2022/10/07 04:54:38;;;;;;;7.40;4.00;;;;;;;;;;4978152;28;20457;-58
2022/10/07 04:57:04;;;;;;;8.20;3.30;;;;;;;;;;4954318;28;20438;-58
2022/10/07 04:59:30;;;;;;;6.33;4.00;;;;;;;;;;4984710;28;20445;-58
2022/10/07 05:01:57;;;;;;;4.10;2.53;;;;;;;;;;4951444;28;20536;-58
2022/10/07 05:04:23;;;;;;;7.00;2.90;;;;;;;;;;4979664;28;20458;-57
2022/10/07 05:06:49;;;;;;;4.57;2.70;;;;;;;;;;4979570;28;20448;-58
2022/10/07 05:09:14;;;;;;;8.63;2.60;;;;;;;;;;4974433;28;20466;-58
2022/10/07 05:11:40;;;;;;;4.53;2.70;;;;;;;;;;4948953;28;20456;-59
2022/10/07 05:14:06;;;;;;;4.40;3.00;;;;;;;;;;4978457;28;20445;-63
2022/10/07 05:16:32;;;;;;;4.47;2.80;;;;;;;;;;4949164;28;20545;-56
2022/10/07 05:18:58;;;;;;;4.93;2.83;;;;;;;;;;4972204;28;20977;-57
2022/10/07 05:21:24;;;;;;;5.17;3.07;;;;;;;;;;4951205;28;20512;-55
2022/10/07 05:23:50;;;;;;;3.17;2.47;;;;;;;;;;4976211;28;20516;-53
2022/10/07 05:26:16;;;;;;;5.03;2.90;;;;;;;;;;4948534;28;20448;-55
2022/10/07 05:28:44;;;;;;;7.13;3.07;;;;;;;;;;4978067;28;20429;-55
2022/10/07 05:31:15;;;;;;;11.43;3.90;;;;;;;;;;4965384;28;20522;-55
2022/10/07 05:33:41;;;;;;;11.10;3.00;;;;;;;;;;4955993;28;20436;-56
2022/10/07 05:36:08;;;;;;;4.73;3.30;;;;;;;;;;4968062;28;20457;-56
2022/10/07 05:38:34;;;;;;;8.37;4.20;;;;;;;;;;4956611;28;20490;-55
2022/10/07 05:41:01;;;;;;;5.90;4.23;;;;;;;;;;4977898;28;20480;-55
2022/10/07 05:43:27;;;;;;;6.90;3.67;;;;;;;;;;4978429;28;20441;-56
2022/10/07 05:46:00;;;;;;;4.67;3.03;;;;;;;;;;4956608;28;20511;-55
2022/10/07 05:48:27;;;;;;;2.97;2.67;;;;;;;;;;4903201;28;20879;-56
2022/10/07 05:50:53;;;;;;;6.70;3.10;;;;;;;;;;4957404;28;20499;-57
2022/10/07 05:53:19;;;;;;;4.87;3.33;;;;;;;;;;4941993;28;20429;-56
2022/10/07 05:55:45;;;;;;;7.43;3.30;;;;;;;;;;5016013;28;20443;-56
2022/10/07 05:58:12;;;;;;;5.70;3.07;;;;;;;;;;4932116;28;21103;-56
2022/10/07 06:00:41;;;;;;;5.53;3.37;;;;;;;;;;4924862;28;20190;-56
2022/10/07 06:03:07;;;;;;;4.47;3.27;;;;;;;;;;4952298;28;20449;-57
2022/10/07 06:05:33;;;;;;;5.97;3.43;;;;;;;;;;4936485;28;20893;-56
2022/10/07 06:07:59;;;;;;;4.70;3.03;;;;;;;;;;4967365;28;20441;-57
2022/10/07 06:13:10;;;;;;;4.27;3.53;;;;;;;;;;4969630;28;20454;-56
2022/10/07 06:15:36;;;;;;;7.43;3.13;;;;;;;;;;4966932;28;20477;-56
2022/10/07 06:18:03;;;;;;;6.43;3.10;;;;;;;;;;4944320;28;20444;-56
2022/10/07 06:20:29;;;;;;;6.37;2.83;;;;;;;;;;4973649;28;20480;-56
2022/10/07 06:22:56;;;;;;;3.50;2.87;;;;;;;;;;4954359;28;20449;-57
2022/10/07 06:25:22;;;;;;;6.30;3.00;;;;;;;;;;4980283;28;20492;-56
2022/10/07 06:27:48;;;;;;;6.23;2.70;;;;;;;;;;4961321;28;20444;-55
2022/10/07 06:30:15;;;;;;;4.47;2.80;;;;;;;;;;4980949;28;20642;-56
2022/10/07 06:32:40;;;;;;;8.40;3.07;;;;;;;;;;4941039;28;20452;-57
2022/10/07 06:35:07;;;;;;;8.40;3.20;;;;;;;;;;4969721;28;21922;-56
2022/10/07 06:37:33;;;;;;;4.37;3.10;;;;;;;;;;4949731;28;20453;-56
2022/10/07 06:39:58;;;;;;;5.73;2.73;;;;;;;;;;4973867;28;21235;-57
2022/10/07 06:42:24;;;;;;;6.40;4.17;;;;;;;;;;4956024;28;20450;-56
2022/10/07 06:44:52;;;;;;;5.60;3.30;;;;;;;;;;4969348;28;20445;-55
2022/10/07 06:47:19;;;;;;;10.33;3.30;;;;;;;;;;4975492;28;20541;-56
2022/10/07 06:49:45;;;;;;;4.80;2.80;;;;;;;;;;4987628;28;20465;-57
2022/10/07 06:52:14;;;;;;;5.07;2.77;;;;;;;;;;4949491;28;20453;-58
2022/10/07 06:54:39;;;;;;;10.10;3.10;;;;;;;;;;4979197;28;20534;-56
2022/10/07 06:57:05;;;;;;;9.80;3.57;;;;;;;;;;4960748;28;20837;-57
2022/10/07 06:59:31;;;;;;;3.47;2.70;;;;;;;;;;4973680;28;20536;-56
2022/10/07 07:01:58;;;;;;;5.60;3.33;;;;;;;;;;4948120;28;21289;-56
2022/10/07 07:04:24;;;;;;;6.43;3.27;;;;;;;;;;4981108;28;20462;-56
2022/10/07 07:06:51;;;;;;;6.40;3.70;;;;;;;;;;4959930;28;24647;-57
2022/10/07 07:09:17;;;;;;;6.00;3.47;;;;;;;;;;4970067;28;20478;-56
2022/10/07 07:11:44;;;;;;;5.40;3.30;;;;;;;;;;4973197;28;20447;-56
2022/10/07 07:14:10;;;;;;;12.70;4.43;;;;;;;;;;4977104;28;20966;-56
2022/10/07 07:16:36;;;;;;;4.20;3.60;;;;;;;;;;4975606;28;20449;-57
2022/10/07 07:19:07;;;;;;;9.23;5.50;;;;;;;;;;4976623;28;20432;-56
2022/10/07 07:21:34;;;;;;;7.73;5.90;;;;;;;;;;4979474;28;20751;-57
2022/10/07 07:24:00;;;;;;;12.40;8.20;;;;;;;;;;4982617;28;20444;-56
2022/10/07 07:26:30;;;;;;;17.27;11.60;;;;;;;;;;4975465;28;20472;-57
2022/10/07 07:29:01;;;;;;;13.30;9.57;;;;;;;;;;4957930;28;20469;-57
2022/10/07 07:31:27;;;;;;;17.20;12.20;;;;;;;;;;4965473;28;21017;-56
2022/10/07 07:33:54;;;;;;;10.70;7.87;;;;;;;;;;4955886;28;20444;-57
2022/10/07 07:36:21;;;;;;;6.13;5.00;;;;;;;;;;4983055;28;20444;-57
2022/10/07 07:38:51;;;;;;;7.93;5.30;;;;;;;;;;4978466;28;20545;-56
2022/10/07 07:41:23;;;;;;;13.10;6.23;;;;;;;;;;4983344;28;20448;-56
2022/10/07 07:43:52;;;;;;;10.07;7.07;;;;;;;;;;4943993;28;20525;-56
2022/10/07 07:46:19;;;;;;;7.93;5.23;;;;;;;;;;4978033;28;20435;-56
2022/10/07 07:48:45;;;;;;;5.30;3.80;;;;;;;;;;4948975;28;20444;-56
2022/10/07 07:51:12;;;;;;;8.63;4.00;;;;;;;;;;5007824;28;20478;-57
2022/10/07 07:53:38;;;;;;;9.30;4.03;;;;;;;;;;5015856;28;20444;-56
2022/10/07 07:56:04;;;;;;;5.40;3.97;;;;;;;;;;4981783;28;20471;-56
2022/10/07 07:58:30;;;;;;;6.50;3.50;;;;;;;;;;4978226;28;20436;-56
2022/10/07 08:00:57;;;;;;;4.80;3.30;;;;;;;;;;4948191;28;20467;-56
2022/10/07 08:03:24;;;;;;;3.97;3.30;;;;;;;;;;4982118;28;20930;-57
2022/10/07 08:05:50;;;;;;;4.40;2.97;;;;;;;;;;4952835;28;20453;-56
2022/10/07 08:08:16;;;;;;;3.40;3.10;;;;;;;;;;5004498;28;20446;-56
2022/10/07 08:10:42;;;;;;;4.30;3.30;;;;;;;;;;4951251;28;20861;-55
2022/10/07 08:13:08;;;;;;;5.40;2.80;;;;;;;;;;4977278;28;20465;-55
2022/10/07 08:15:34;;;;;;;4.93;3.40;;;;;;;;;;4942868;28;20437;-56
2022/10/07 08:18:02;;;;;;;5.00;3.03;;;;;;;;;;4981846;28;21001;-57
2022/10/07 08:20:28;;;;;;;6.03;3.33;;;;;;;;;;4968703;28;20564;-58
2022/10/07 08:22:54;;;;;;;4.53;2.90;;;;;;;;;;4978539;28;21165;-58
2022/10/07 08:25:21;;;;;;;5.20;2.93;;;;;;;;;;4971515;28;20975;-57
2022/10/07 08:27:47;;;;;;;3.30;3.00;;;;;;;;;;4979384;28;20480;-56
2022/10/07 08:30:13;;;;;;;7.60;3.00;;;;;;;;;;4949670;28;20469;-55
2022/10/07 08:32:39;;;;;;;4.67;2.47;;;;;;;;;;4976016;28;20459;-57
2022/10/07 08:35:06;;;;;;;3.90;3.00;;;;;;;;;;4953189;28;20494;-57
2022/10/07 08:37:31;;;;;;;6.07;3.40;;;;;;;;;;4979704;28;20524;-57
2022/10/07 08:39:57;;;;;;;4.87;3.10;;;;;;;;;;4951431;28;20453;-57
2022/10/07 08:42:49;;;;;;;4.63;3.00;;;;;;;;;;4976503;28;20457;-57
2022/10/07 08:45:19;;;;;;;7.43;3.57;;;;;;;;;;4975056;28;20468;-56
2022/10/07 08:47:45;;;;;;;4.80;3.27;;;;;;;;;;4976778;28;20456;-57
2022/10/07 08:50:15;;;;;;;4.43;3.33;;;;;;;;;;4940731;28;20485;-57
2022/10/07 08:52:49;;;;;;;9.70;3.40;;;;;;;;;;4979188;28;20472;-57
2022/10/07 08:55:21;;;;;;;4.23;3.63;;;;;;;;;;4955183;28;20978;-55
2022/10/07 08:57:50;;;;;;;4.10;3.07;;;;;;;;;;5010227;28;20577;-56
2022/10/07 09:00:18;;;;;;;7.63;4.10;;;;;;;;;;4953469;28;20457;-57
2022/10/07 09:03:04;;;;;;;7.37;3.37;;;;;;;;;;4980033;28;20449;-56
2022/10/07 09:05:34;;;;;;;5.77;3.20;;;;;;;;;;4941171;28;21142;-55
2022/10/07 09:08:04;;;;;;;5.87;2.90;;;;;;;;;;4980886;28;21531;-56
2022/10/07 09:10:37;;;;;;;5.73;3.40;;;;;;;;;;4951569;28;21593;-58
2022/10/07 09:13:22;;;;;;;6.23;3.13;;;;;;;;;;5004102;28;20456;-57
2022/10/07 09:15:48;;;;;;;5.57;3.47;;;;;;;;;;4952005;28;20476;-55
2022/10/07 09:18:17;;;;;;;5.10;3.83;;;;;;;;;;4978762;28;20469;-55
2022/10/07 09:20:44;;;;;;;6.20;3.40;;;;;;;;;;4959356;28;20214;-56
2022/10/07 09:23:12;;;;;;;4.63;3.93;;;;;;;;;;4983357;28;20575;-57
2022/10/07 09:25:40;;;;;;;8.33;4.00;;;;;;;;;;4963239;28;20488;-56
2022/10/07 09:28:11;;;;;;;6.00;3.43;;;;;;;;;;4978893;28;20441;-56
2022/10/07 09:30:37;;;;;;;7.80;4.00;;;;;;;;;;4975306;28;20477;-57
2022/10/07 09:33:03;;;;;;;4.70;3.60;;;;;;;;;;5011479;28;20571;-57
2022/10/07 09:35:31;;;;;;;4.07;3.40;;;;;;;;;;4990513;28;20434;-56
2022/10/07 09:37:58;;;;;;;8.53;3.73;;;;;;;;;;4957684;28;20447;-56
2022/10/07 09:41:13;;;;;;;4.50;3.27;;;;;;;;;;4980499;28;20429;-55
2022/10/07 09:43:23;;;;;;;7.60;4.30;;;;;;;;;;4976469;28;20438;-56
2022/10/07 09:45:49;;;;;;;4.03;3.63;;;;;;;;;;4968575;28;20459;-55
2022/10/07 09:48:21;;;;;;;6.33;3.97;;;;;;;;;;4969175;28;20902;-53
2022/10/07 09:51:01;;;;;;;5.63;3.90;;;;;;;;;;4973041;28;21006;-56
2022/10/07 09:53:32;;;;;;;5.37;4.40;;;;;;;;;;4962860;28;20528;-55
2022/10/07 09:55:58;;;;;;;5.43;3.70;;;;;;;;;;4974585;28;20996;-56
2022/10/07 09:58:24;;;;;;;8.77;4.90;;;;;;;;;;4981608;28;20445;-56
2022/10/07 10:00:51;;;;;;;6.53;3.93;;;;;;;;;;4962646;28;20442;-54
2022/10/07 10:03:17;;;;;;;5.73;3.93;;;;;;;;;;4958751;28;21787;-56
2022/10/07 10:05:51;;;;;;;8.73;4.30;;;;;;;;;;4969758;28;20950;-56
2022/10/07 10:08:26;;;;;;;7.13;4.67;;;;;;;;;;4980351;28;20473;-56
2022/10/07 10:10:55;;;;;;;9.63;4.20;;;;;;;;;;4960282;28;20848;-56
2022/10/07 10:13:40;;;;;;;4.80;4.30;;;;;;;;;;4972231;28;20429;-56
2022/10/07 10:16:06;;;;;;;8.70;4.20;;;;;;;;;;4955394;28;20457;-56
2022/10/07 10:18:39;;;;;;;6.23;4.77;;;;;;;;;;4980564;28;20452;-56
2022/10/07 10:21:18;;;;;;;8.90;5.27;;;;;;;;;;4954204;28;20488;-56
2022/10/07 10:23:51;;;;;;;5.23;4.10;;;;;;;;;;4977766;28;20432;-55
2022/10/07 10:26:28;;;;;;;8.90;5.10;;;;;;;;;;4961444;28;20460;-56
2022/10/07 10:29:00;;;;;;;5.23;4.73;;;;;;;;;;4969086;28;20460;-56
2022/10/07 10:31:29;;;;;;;7.80;4.43;;;;;;;;;;4965336;28;20491;-56
2022/10/07 10:33:58;;;;;;;7.73;4.67;;;;;;;;;;4984014;28;20471;-56
2022/10/07 10:36:26;;;;;;;5.67;4.27;;;;;;;;;;4965012;28;20436;-55
2022/10/07 10:39:00;;;;;;;5.63;3.97;;;;;;;;;;4981076;28;20440;-55
2022/10/07 10:41:32;;;;;;;8.63;4.20;;;;;;;;;;4978664;28;20461;-57
2022/10/07 10:43:58;;;;;;;7.23;3.90;;;;;;;;;;4970049;28;20448;-56
2022/10/07 10:46:24;;;;;;;6.63;4.30;;;;;;;;;;4983906;28;21007;-56
2022/10/07 10:49:05;;;;;;;9.17;4.83;;;;;;;;;;4979375;28;20437;-56
2022/10/07 10:51:33;;;;;;;5.47;4.43;;;;;;;;;;5013421;28;20485;-56
2022/10/07 10:54:05;;;;;;;7.07;4.60;;;;;;;;;;4960710;28;20454;-56
2022/10/07 10:56:32;;;;;;;8.80;4.40;;;;;;;;;;4984789;28;20944;-56
2022/10/07 10:59:02;;;;;;;5.70;4.57;;;;;;;;;;4959385;28;20555;-56
2022/10/07 11:01:37;;;;;;;5.40;4.80;;;;;;;;;;4985289;28;20456;-56
2022/10/07 11:04:19;;;;;;;5.97;4.10;;;;;;;;;;4952827;28;20518;-55
2022/10/07 11:06:47;;;;;;;7.93;4.40;;;;;;;;;;4984927;28;20490;-56
2022/10/07 11:09:16;;;;;;;5.13;4.00;;;;;;;;;;4968495;28;20439;-56
2022/10/07 11:15:02;;;;;;;5.03;4.03;;;;;;;;;;4968206;28;20921;-55
2022/10/07 11:17:29;;;;;;;5.53;4.93;;;;;;;;;;4980648;28;20460;-55
2022/10/07 11:20:15;;;;;;;8.00;4.60;;;;;;;;;;4970125;28;20445;-55
2022/10/07 11:22:43;;;;;;;6.30;4.70;;;;;;;;;;4944979;28;21957;-55
2022/10/07 11:25:30;;;;;;;5.13;4.63;;;;;;;;;;4991825;28;20472;-56
2022/10/07 11:27:59;;;;;;;6.60;4.77;;;;;;;;;;4939090;28;20458;-56
2022/10/07 11:30:25;;;;;;;5.63;4.43;;;;;;;;;;4971200;28;20535;-56
2022/10/07 11:33:04;;;;;;;6.17;4.33;;;;;;;;;;4963783;28;20474;-56
2022/10/07 11:35:42;;;;;;;5.60;4.23;;;;;;;;;;4999298;28;20517;-55
2022/10/07 11:38:12;;;;;;;5.03;4.53;;;;;;;;;;4945766;28;20447;-55
2022/10/07 11:40:57;;;;;;;10.10;5.00;;;;;;;;;;4969947;28;20525;-56
2022/10/07 11:43:25;;;;;;;7.00;4.40;;;;;;;;;;4958305;28;21071;-56
2022/10/07 11:45:52;;;;;;;6.83;4.40;;;;;;;;;;4974382;28;20442;-55
2022/10/07 11:48:20;;;;;;;5.80;4.80;;;;;;;;;;4970481;28;20472;-55
2022/10/07 11:50:48;;;;;;;4.63;4.13;;;;;;;;;;4981979;28;20492;-55
2022/10/07 11:53:15;;;;;;;6.20;4.50;;;;;;;;;;4974379;28;20463;-57
2022/10/07 11:55:43;;;;;;;5.40;4.90;;;;;;;;;;5007197;28;20503;-56
2022/10/07 11:58:18;;;;;;;6.37;5.07;;;;;;;;;;4975250;28;20445;-57
2022/10/07 12:00:49;;;;;;;6.37;4.70;;;;;;;;;;4980578;28;20454;-57
2022/10/07 12:03:18;;;;;;;6.73;6.00;;;;;;;;;;4950652;28;20456;-57
2022/10/07 12:05:47;;;;;;;5.10;4.50;;;;;;;;;;4962689;28;21135;-55
2022/10/07 12:08:27;;;;;;;4.60;4.20;;;;;;;;;;4963861;28;20789;-56
2022/10/07 12:10:53;;;;;;;6.97;5.10;;;;;;;;;;4978433;28;21494;-57
2022/10/07 12:13:19;;;;;;;7.03;5.07;;;;;;;;;;4955201;28;20471;-56
2022/10/07 12:15:46;;;;;;;6.07;4.90;;;;;;;;;;4978106;28;20453;-56
2022/10/07 12:18:18;;;;;;;7.23;5.40;;;;;;;;;;4969496;28;20473;-56
2022/10/07 12:20:46;;;;;;;5.20;4.40;;;;;;;;;;4972433;28;20440;-56
2022/10/07 12:23:16;;;;;;;6.80;4.73;;;;;;;;;;4955054;28;23109;-56
2022/10/07 12:25:43;;;;;;;5.90;4.33;;;;;;;;;;4975963;28;20436;-57
2022/10/07 12:28:28;;;;;;;7.13;5.20;;;;;;;;;;4954874;28;21222;-56
2022/10/07 12:30:55;;;;;;;5.70;5.07;;;;;;;;;;4984500;28;20572;-56
2022/10/07 12:33:39;;;;;;;5.30;4.37;;;;;;;;;;4976295;28;20441;-56
2022/10/07 12:36:20;;;;;;;7.90;4.97;;;;;;;;;;4985396;28;20973;-53
2022/10/07 12:38:58;;;;;;;5.90;5.03;;;;;;;;;;4953814;28;20437;-56
2022/10/07 12:41:24;;;;;;;7.40;4.80;;;;;;;;;;4973949;28;20449;-56
2022/10/07 12:43:52;;;;;;;6.03;5.13;;;;;;;;;;4962197;28;20436;-56
2022/10/07 12:46:19;;;;;;;6.30;4.20;;;;;;;;;;4982959;28;20458;-55
2022/10/07 12:48:46;;;;;;;7.70;5.37;;;;;;;;;;4955452;28;20966;-55
2022/10/07 12:51:18;;;;;;;8.00;5.73;;;;;;;;;;5012573;28;20559;-56
2022/10/07 12:53:46;;;;;;;6.73;5.27;;;;;;;;;;4975443;28;20440;-55
2022/10/07 12:56:23;;;;;;;5.77;5.20;;;;;;;;;;4992021;28;20448;-55
2022/10/07 13:01:54;;;;;;;5.30;4.80;;;;;;;;;;4978627;28;20544;-57
2022/10/07 13:04:23;;;;;;;8.30;5.40;;;;;;;;;;4947696;28;20468;-57
2022/10/07 13:07:08;;;;;;;7.70;5.33;;;;;;;;;;4953264;28;20477;-56
2022/10/07 13:09:42;;;;;;;6.03;4.40;;;;;;;;;;5011127;28;20962;-56
2022/10/07 13:12:26;;;;;;;10.17;6.03;;;;;;;;;;4991767;28;20463;-55
2022/10/07 13:15:07;;;;;;;4.90;4.37;;;;;;;;;;5010948;28;20443;-56
2022/10/07 13:17:34;;;;;;;5.30;4.20;;;;;;;;;;4956528;28;20449;-55
2022/10/07 13:20:15;;;;;;;5.50;5.00;;;;;;;;;;4984934;28;20428;-55
2022/10/07 13:22:46;;;;;;;5.40;4.77;;;;;;;;;;4957790;28;20464;-56
2022/10/07 13:25:12;;;;;;;5.20;4.67;;;;;;;;;;4978070;28;20453;-56
2022/10/07 13:27:40;;;;;;;6.10;5.50;;;;;;;;;;4951961;28;20986;-56
2022/10/07 13:30:06;;;;;;;6.87;5.10;;;;;;;;;;4972126;28;20214;-55
2022/10/07 13:32:33;;;;;;;7.50;4.90;;;;;;;;;;4951238;28;20449;-55
2022/10/07 13:35:00;;;;;;;5.53;4.80;;;;;;;;;;4983028;28;20480;-56
2022/10/07 13:37:33;;;;;;;6.93;5.20;;;;;;;;;;4958025;28;20453;-57
2022/10/07 13:40:38;;;;;;;7.17;5.73;;;;;;;;;;4981750;28;20798;-56
2022/10/07 13:43:08;;;;;;;8.27;4.87;;;;;;;;;;4977016;28;20456;-56
2022/10/07 13:45:43;;;;;;;5.60;4.73;;;;;;;;;;4978625;28;20838;-55
2022/10/07 13:48:20;;;;;;;6.07;5.47;;;;;;;;;;4952060;28;20461;-55
2022/10/07 13:50:49;;;;;;;6.10;4.83;;;;;;;;;;4982972;28;20582;-55
2022/10/07 13:53:22;;;;;;;5.13;4.47;;;;;;;;;;4961793;28;20878;-57
2022/10/07 13:55:48;;;;;;;7.50;4.70;;;;;;;;;;5016233;28;20433;-56
2022/10/07 13:58:14;;;;;;;8.33;5.67;;;;;;;;;;4952410;28;20460;-55
2022/10/07 14:00:42;;;;;;;7.50;6.60;;;;;;;;;;4964055;28;20441;-58
2022/10/07 14:03:15;;;;;;;5.50;4.90;;;;;;;;;;4973523;28;20966;-56
2022/10/07 14:05:45;;;;;;;6.80;4.77;;;;;;;;;;4973112;28;21288;-54
2022/10/07 14:08:15;;;;;;;6.63;5.33;;;;;;;;;;5008351;28;20463;-54
2022/10/07 14:11:04;;;;;;;8.03;4.93;;;;;;;;;;4954372;28;21033;-54
2022/10/07 14:13:30;;;;;;;8.03;5.20;;;;;;;;;;4975318;28;20561;-54
2022/10/07 14:15:56;;;;;;;6.77;6.10;;;;;;;;;;4958342;28;20444;-54
2022/10/07 14:18:23;;;;;;;6.43;5.80;;;;;;;;;;4973754;28;20449;-56
2022/10/07 14:20:52;;;;;;;6.40;5.80;;;;;;;;;;4958829;28;20910;-54
2022/10/07 14:23:18;;;;;;;6.40;5.80;;;;;;;;;;4964472;28;20437;-55
2022/10/07 14:25:47;;;;;;;5.30;4.80;;;;;;;;;;4955754;28;20436;-54
2022/10/07 14:28:52;;;;;;;6.10;4.93;;;;;;;;;;4966892;28;20453;-55
2022/10/07 14:37:07;;;;;;;6.40;5.37;;;;;;;;;;4975202;28;20460;-54
2022/10/07 14:39:34;;;;;;;7.57;5.17;;;;;;;;;;4955418;28;20555;-58
2022/10/07 14:42:00;;;;;;;7.17;4.83;;;;;;;;;;4997524;28;20454;-54
2022/10/07 14:44:26;;;;;;;8.20;5.77;;;;;;;;;;4946236;28;20452;-55
2022/10/07 14:47:05;;;;;;;5.47;4.87;;;;;;;;;;4982035;28;20440;-54
2022/10/07 14:49:32;;;;;;;4.93;4.40;;;;;;;;;;4969734;28;23673;-55
2022/10/07 14:51:58;;;;;;;6.10;5.37;;;;;;;;;;4979074;28;20441;-54
2022/10/07 14:54:24;;;;;;;7.67;5.23;;;;;;;;;;4968512;28;21162;-55
2022/10/07 14:56:50;;;;;;;7.10;5.27;;;;;;;;;;4962321;28;20971;-54
2022/10/07 15:00:06;;;;;;;6.53;4.80;;;;;;;;;;4973015;28;20440;-55
2022/10/07 15:02:26;;;;;;;9.50;5.20;;;;;;;;;;4942766;28;20456;-53
2022/10/07 15:04:52;;;;;;;8.33;4.83;;;;;;;;;;4983255;28;20589;-55
2022/10/07 15:07:18;;;;;;;6.63;5.83;;;;;;;;;;4963983;28;20500;-55
2022/10/07 15:09:44;;;;;;;5.77;5.00;;;;;;;;;;5012784;28;20545;-55